Latest Weather Observations for Kununurra Airport

IDW60801

Issued at 8:32 pm WST Monday 30 March 2015 (issued every 30 minutes, with the page automatically refreshed every 10 minutes)

About weather observations | Map of weather stations | Latest weather observations for WA | Other Formats
Station Details ID: 002056 Name: KUNUNURRA AERO Lat: -15.78 Lon: 128.71 Height: 44.0 m
Data from the previous 72 hours. | See also: Recent months at Kununurra Airport
Date/Time
WST
Temp
°C
App
Temp
°C
Dew
Point
Rel
Hum
%
Delta-T
°C
Wind Press
QNH
hPa
Press
MSL
hPa
Rain
since 9 am
mm
Dir
 
Spd
km/h
Gust
km/h
Spd
kts
Gust
kts
30/08:30pm 28.4 33.2 22.2 69 4.2 CALM 0 0 0 0 1013.2 1012.9 0.0
30/08:00pm 28.3 33.4 22.6 71 3.9 CALM 0 0 0 0 1013.0 1012.7 0.0
30/07:30pm 30.6 35.4 22.2 61 5.7 CALM 0 6 0 3 1012.6 1012.3 0.0
30/07:00pm 30.8 34.3 22.1 59 5.9 NNE 7 9 4 5 1012.3 1012.0 0.0
30/06:30pm 31.4 34.4 21.3 55 6.8 NNE 7 9 4 5 1011.9 1011.6 0.0
30/06:00pm 31.9 34.5 21.2 53 7.2 NNE 9 9 5 5 1011.6 1011.3 0.0
30/05:30pm 33.4 36.1 20.7 47 8.5 NNE 7 11 4 6 1011.1 1010.8 0.0
30/05:00pm 35.6 36.0 18.9 37 11.0 ENE 15 19 8 10 1010.9 1010.6 0.0
30/04:30pm 36.3 36.9 19.5 37 11.2 ENE 15 19 8 10 1010.5 1010.2 0.0
30/04:00pm 36.5 38.2 20.9 40 10.6 NNE 13 17 7 9 1010.4 1010.1 0.0
30/03:30pm 36.9 37.2 19.5 36 11.6 E 17 22 9 12 1010.3 1010.0 0.0
30/03:00pm 37.0 39.5 20.2 37 11.3 ENE 7 19 4 10 1010.2 1009.9 0.0
30/02:30pm 36.9 38.6 21.0 39 10.8 NNE 13 20 7 11 1010.4 1010.1 0.0
30/02:00pm 36.3 37.6 20.2 39 10.8 NE 13 17 7 9 1010.6 1010.3 0.0
30/01:30pm 36.0 38.4 20.8 41 10.3 NE 9 19 5 10 1010.9 1010.6 0.0
30/01:00pm 36.9 39.0 21.0 39 10.8 ENE 11 19 6 10 1011.2 1010.9 0.0
30/12:30pm 36.6 38.1 20.6 39 10.8 NE 13 20 7 11 1011.5 1011.2 0.0
30/12:00pm 36.5 38.7 21.1 40 10.5 NE 11 19 6 10 1011.7 1011.4 0.0
30/11:30am 35.9 36.8 20.8 41 10.2 NE 17 28 9 15 1012.2 1011.9 0.0
30/11:00am 35.8 36.1 19.6 38 10.8 NE 17 26 9 14 1012.7 1012.4 0.0
30/10:30am 35.3 36.5 20.0 40 10.2 ENE 13 22 7 12 1013.3 1013.0 0.0
30/10:00am 34.9 36.3 20.3 42 9.8 NE 13 24 7 13 1013.7 1013.4 0.0
30/09:30am 34.4 35.6 19.8 42 9.7 ENE 13 19 7 10 1014.1 1013.8 0.0
30/09:00am 33.3 34.9 19.1 43 9.3 ENE 9 15 5 8 1014.1 1013.8 0.0
30/08:30am 32.6 34.1 19.0 44 8.9 SE 9 13 5 7 1014.1 1013.8 0.0
30/08:00am 31.3 33.6 19.4 49 7.8 SSE 6 7 3 4 1014.0 1013.7 0.0
30/07:30am 29.5 33.2 20.8 59 5.8 S 2 6 1 3 1014.0 1013.7 0.0
30/07:00am 28.6 34.0 23.2 72 3.7 CALM 0 0 0 0 1013.7 1013.4 0.0
30/06:30am 26.5 31.5 22.5 78 2.7 CALM 0 0 0 0 1013.4 1013.1 0.0
30/06:00am 25.4 30.1 22.7 85 1.8 NW 2 6 1 3 1013.1 1012.8 0.0
30/05:30am 23.6 28.1 22.3 92 0.9 W 2 7 1 4 1012.8 1012.5 0.0
30/05:00am 23.8 28.6 22.2 91 1.1 CALM 0 0 0 0 1012.4 1012.1 0.0
30/04:30am 25.0 29.0 22.8 87 1.5 SSE 6 7 3 4 1012.1 1011.8 0.0
30/04:00am 24.0 29.1 22.7 92 0.9 CALM 0 0 0 0 1011.9 1011.6 0.0
30/03:30am 24.2 29.3 22.6 91 1.1 CALM 0 0 0 0 1011.8 1011.5 0.0
30/03:00am 24.7 28.8 21.5 82 2.1 NE 2 6 1 3 1011.5 1011.2 0.0
30/02:30am 24.0 27.6 22.1 89 1.3 NNE 6 9 3 5 1011.2 1010.9 0.0
30/02:00am 24.4 28.3 21.8 85 1.7 W 4 6 2 3 1011.3 1011.0 0.0
30/01:30am 24.4 28.5 22.2 87 1.5 SW 4 7 2 4 1011.4 1011.1 0.0
30/01:00am 25.2 28.9 22.2 83 2.0 E 6 7 3 4 1011.5 1011.2 0.0
30/12:30am 25.8 30.3 21.6 77 2.8 CALM 0 0 0 0 1011.7 1011.4 0.0
30/12:00am 25.3 29.5 21.7 80 2.4 ENE 2 7 1 4 1012.0 1011.7 0.0
 
Date/Time
WST
Temp
°C
App
Temp
°C
Dew
Point
Rel
Hum
%
Delta-T
°C
Wind Press
QNH
hPa
Press
MSL
hPa
Rain
since 9 am
mm
Dir
 
Spd
km/h
Gust
km/h
Spd
kts
Gust
kts
29/11:30pm 24.9 28.2 21.9 83 2.0 E 7 9 4 5 1012.4 1012.1 0.0
29/11:00pm 25.1 29.6 21.5 80 2.4 CALM 0 0 0 0 1012.5 1012.2 0.0
29/10:30pm 26.2 30.2 22.0 77 2.8 E 4 6 2 3 1012.9 1012.6 0.0
29/10:00pm 27.0 30.3 21.4 71 3.7 ENE 6 7 3 4 1012.9 1012.6 0.0
29/09:30pm 26.5 32.1 23.6 84 2.0 CALM 0 0 0 0 1013.0 1012.7 0.0
29/09:00pm 27.5 32.9 23.3 78 2.9 CALM 0 0 0 0 1013.0 1012.7 0.0
29/08:30pm 28.1 32.7 21.7 68 4.3 CALM 0 0 0 0 1012.9 1012.6 0.0
29/08:00pm 27.9 31.1 20.6 64 4.8 ENE 4 6 2 3 1012.9 1012.6 0.0
29/07:30pm 27.9 31.6 21.5 68 4.3 ENE 4 6 2 3 1012.6 1012.3 0.0
29/07:00pm 28.3 32.8 21.6 67 4.5 CALM 0 0 0 0 1012.4 1012.1 0.0
29/06:30pm 29.4 33.5 20.8 60 5.7 CALM 0 0 0 0 1012.2 1011.9 0.0
29/06:00pm 31.3 35.1 21.0 54 6.9 ENE 2 11 1 6 1011.9 1011.6 0.0
29/05:30pm 33.3 35.1 20.4 46 8.6 NE 11 13 6 7 1011.5 1011.2 0.0
29/05:00pm 35.2 35.8 19.5 39 10.4 ENE 15 19 8 10 1011.3 1011.0 0.0
29/04:30pm 36.2 36.7 19.2 37 11.3 E 15 19 8 10 1011.1 1010.8 0.0
29/04:00pm 36.5 37.2 19.6 37 11.3 E 15 19 8 10 1011.1 1010.8 0.0
29/03:30pm 36.7 37.0 19.6 36 11.4 ESE 17 22 9 12 1010.9 1010.6 0.0
29/03:00pm 36.9 37.2 19.7 36 11.5 E 17 24 9 13 1010.7 1010.4 0.0
29/02:30pm 36.7 37.7 19.4 36 11.5 SE 13 22 7 12 1010.5 1010.2 0.0
29/02:00pm 36.6 37.1 19.3 36 11.5 E 15 19 8 10 1010.6 1010.3 0.0
29/01:30pm 36.9 38.1 19.9 37 11.4 ENE 13 22 7 12 1011.0 1010.7 0.0
29/01:00pm 36.4 36.7 19.6 37 11.2 ENE 17 26 9 14 1011.4 1011.1 0.0
29/12:30pm 36.7 35.9 18.5 34 12.0 E 20 30 11 16 1011.5 1011.2 0.0
29/12:00pm 35.5 34.8 18.2 36 11.3 E 19 30 10 16 1011.8 1011.5 0.0
29/11:30am 35.6 36.6 18.7 37 11.1 E 11 15 6 8 1012.3 1012.0 0.0
29/11:00am 34.9 35.5 18.6 38 10.7 E 13 20 7 11 1012.7 1012.4 0.0
29/10:30am 34.8 34.2 17.6 36 11.1 ENE 17 22 9 12 1013.1 1012.8 0.0
29/10:00am 34.3 35.4 17.9 37 10.6 E 9 15 5 8 1013.6 1013.3 0.0
29/09:30am 33.7 34.5 18.1 39 10.1 E 11 17 6 9 1014.1 1013.8 0.0
29/09:00am 33.0 33.1 16.6 37 10.4 SSE 11 15 6 8 1014.2 1013.9 0.0
29/08:30am 31.5 33.7 19.5 49 7.9 SSE 7 9 4 5 1014.3 1014.0 0.0
29/08:00am 29.8 33.0 20.6 57 6.1 SSE 4 7 2 4 1014.2 1013.9 0.0
29/07:30am 28.9 33.8 22.3 67 4.5 CALM 0 0 0 0 1013.8 1013.5 0.0
29/07:00am 27.4 32.8 23.2 78 2.9 CALM 0 0 0 0 1013.7 1013.4 0.0
29/06:30am 25.9 31.2 23.1 84 1.9 CALM 0 0 0 0 1013.4 1013.1 0.0
29/06:00am 24.6 29.4 22.2 86 1.6 CALM 0 0 0 0 1012.9 1012.6 0.0
29/05:30am 23.6 28.5 22.4 93 0.8 CALM 0 0 0 0 1012.8 1012.5 0.0
29/05:00am 23.7 28.6 22.4 92 0.9 CALM 0 0 0 0 1012.7 1012.4 0.0
29/04:30am 23.6 27.3 22.6 94 0.7 NW 7 9 4 5 1012.2 1011.9 0.0
29/04:00am 24.0 29.1 22.7 92 0.9 CALM 0 0 0 0 1012.0 1011.7 0.0
29/03:30am 24.5 29.6 22.6 89 1.3 CALM 0 0 0 0 1011.7 1011.4 0.0
29/03:00am 23.9 29.0 22.6 92 0.9 CALM 0 0 0 0 1011.6 1011.3 0.0
29/02:30am 23.7 28.5 22.2 91 1.0 CALM 0 0 0 0 1011.5 1011.2 0.0
29/02:00am 24.6 29.5 22.4 87 1.5 CALM 0 0 0 0 1011.7 1011.4 0.0
29/01:30am 24.2 29.1 22.3 89 1.3 CALM 0 0 0 0 1011.6 1011.3 0.0
29/01:00am 24.4 29.1 22.0 86 1.6 CALM 0 0 0 0 1011.9 1011.6 0.0
29/12:30am 24.3 28.9 21.7 85 1.7 CALM 0 0 0 0 1012.2 1011.9 0.0
29/12:00am 24.9 29.1 22.4 86 1.7 NE 4 7 2 4 1012.5 1012.2 0.0
 
Date/Time
WST
Temp
°C
App
Temp
°C
Dew
Point
Rel
Hum
%
Delta-T
°C
Wind Press
QNH
hPa
Press
MSL
hPa
Rain
since 9 am
mm
Dir
 
Spd
km/h
Gust
km/h
Spd
kts
Gust
kts
28/11:30pm 25.1 30.4 23.0 88 1.4 CALM 0 0 0 0 1012.8 1012.5 0.0
28/11:00pm 25.5 30.7 22.8 85 1.8 CALM 0 0 0 0 1013.1 1012.8 0.0
28/10:30pm 25.1 30.2 22.7 86 1.6 CALM 0 0 0 0 1013.3 1013.0 0.0
28/10:00pm 25.4 30.6 22.9 86 1.7 CALM 0 0 0 0 1013.5 1013.2 0.0
28/09:30pm 26.0 31.5 23.4 85 1.8 CALM 0 0 0 0 1013.7 1013.4 0.0
28/09:00pm 26.7 31.8 22.6 78 2.8 CALM 0 0 0 0 1013.5 1013.2 0.0
28/08:30pm 26.9 31.3 22.8 78 2.8 NW 4 7 2 4 1013.4 1013.1 0.0
28/08:00pm 27.4 31.0 22.4 74 3.4 NW 7 9 4 5 1013.3 1013.0 0.0
28/07:30pm 27.0 29.9 22.4 76 3.1 NW 11 13 6 7 1013.0 1012.7 0.0
28/07:00pm 27.4 32.7 23.0 77 3.0 CALM 0 0 0 0 1012.8 1012.5 0.0
28/06:30pm 29.3 33.7 22.1 65 4.9 NW 2 6 1 3 1012.4 1012.1 0.0
28/06:00pm 29.7 33.5 21.0 59 5.8 NW 2 6 1 3 1012.2 1011.9 0.0
28/05:30pm 30.3 33.7 22.0 61 5.6 NW 7 9 4 5 1011.8 1011.5 0.0
28/05:00pm 31.7 34.3 20.4 51 7.5 NNW 7 9 4 5 1011.5 1011.2 0.0
28/04:30pm 32.9 34.1 18.3 42 9.5 NW 9 11 5 6 1011.2 1010.9 0.0
28/04:00pm 33.7 34.0 16.1 34 11.1 N 9 13 5 7 1010.9 1010.6 0.0
28/03:30pm 34.1 33.6 15.0 31 11.9 N 11 15 6 8 1010.7 1010.4 0.0
28/03:00pm 34.3 34.5 15.7 32 11.7 N 9 15 5 8 1010.6 1010.3 0.0
28/02:30pm 34.4 32.3 13.6 28 12.7 NNE 17 20 9 11 1010.6 1010.3 0.0
28/02:00pm 35.1 35.6 15.1 30 12.5 ENE 6 13 3 7 1010.8 1010.5 0.0
28/01:30pm 35.2 35.3 15.5 30 12.4 N 9 22 5 12 1011.2 1010.9 0.0
28/01:00pm 34.6 33.1 14.1 29 12.6 NNE 15 20 8 11 1011.5 1011.2 0.0
28/12:30pm 33.8 34.3 18.3 39 10.1 NE 13 19 7 10 1011.9 1011.6 0.0
28/12:00pm 33.7 34.0 17.9 39 10.2 NE 13 22 7 12 1012.2 1011.9 0.0
28/11:30am 33.1 32.9 17.7 40 9.9 ENE 15 22 8 12 1012.8 1012.5 0.0
28/11:00am 33.5 32.3 16.0 35 11.0 ENE 17 30 9 16 1013.3 1013.0 0.0
28/10:30am 32.7 32.7 18.2 42 9.4 ENE 15 20 8 11 1013.9 1013.6 0.0
28/10:00am 31.3 34.0 22.2 58 6.2 SE 11 15 6 8 1014.4 1014.1 0.0
28/09:30am 29.8 33.8 22.8 66 4.8 SE 6 7 3 4 1014.7 1014.4 0.0
28/09:00am 28.8 34.2 23.9 75 3.4 NNE 2 7 1 4 1014.9 1014.6 0.2
28/08:30am 27.9 32.6 24.0 79 2.7 ESE 6 7 3 4 1014.9 1014.6 0.2
28/08:00am 27.4 33.4 24.2 83 2.2 CALM 0 0 0 0 1014.8 1014.5 0.2
28/07:30am 26.5 32.7 24.6 89 1.3 CALM 0 0 0 0 1014.5 1014.2 0.2
28/07:00am 26.0 32.0 24.3 90 1.2 CALM 0 0 0 0 1013.9 1013.6 0.2
28/06:30am 25.5 30.3 24.2 92 0.9 SW 6 6 3 3 1013.7 1013.4 0.2
28/06:00am 25.3 29.9 24.1 93 0.8 S 7 9 4 5 1013.5 1013.2 0.2
28/05:30am 25.6 30.3 23.9 90 1.2 S 6 7 3 4 1013.1 1012.8 0.2
28/05:00am 25.3 31.0 23.8 91 1.0 CALM 0 0 0 0 1012.9 1012.6 0.2
28/04:30am 24.9 30.9 24.2 96 0.5 CALM 0 0 0 0 1012.8 1012.5 0.2
28/04:00am 24.9 30.9 24.3 96 0.4 CALM 0 0 0 0 1012.4 1012.1 0.2
28/03:30am 25.0 29.6 24.1 95 0.6 WNW 7 9 4 5 1012.4 1012.1 0.2
28/03:00am 25.1 29.7 23.8 92 0.9 W 6 7 3 4 1012.2 1011.9 0.2
28/02:30am 25.2 31.0 24.0 93 0.8 CALM 0 0 0 0 1012.2 1011.9 0.2
28/02:00am 24.9 30.9 24.3 96 0.4 CALM 0 2 0 1 1012.4 1012.1 0.2
28/01:30am 25.0 30.5 24.1 95 0.6 NW 2 7 1 4 1012.6 1012.3 0.2
28/01:29am 25.0 30.9 24.1 95 0.6 CALM 0 7 0 4 1012.6 1012.3 0.2
28/01:15am 24.9 29.2 24.2 96 0.5 NW 9 11 5 6 1012.8 1012.5 0.2
28/01:00am 24.9 30.5 23.6 92 0.9 CALM 0 7 0 4 1012.9 1012.6 0.2
28/12:30am 24.8 30.5 23.8 94 0.7 CALM 0 0 0 0 1013.2 1012.9 0.2
28/12:00am 25.2 29.7 23.6 91 1.1 SSE 6 7 3 4 1013.4 1013.1 0.2
 
Date/Time
WST
Temp
°C
App
Temp
°C
Dew
Point
Rel
Hum
%
Delta-T
°C
Wind Press
QNH
hPa
Press
MSL
hPa
Rain
since 9 am
mm
Dir
 
Spd
km/h
Gust
km/h
Spd
kts
Gust
kts
27/11:30pm 25.2 29.5 23.6 91 1.1 SSE 7 9 4 5 1013.8 1013.5 0.2
27/11:00pm 25.1 30.9 23.9 93 0.8 CALM 0 0 0 0 1014.1 1013.8 0.2
27/10:30pm 25.0 30.7 23.8 93 0.8 CALM 0 0 0 0 1014.6 1014.3 0.2
27/10:00pm 25.0 30.4 23.2 90 1.2 CALM 0 0 0 0 1014.9 1014.6 0.2
27/09:30pm 24.7 30.3 23.5 93 0.8 CALM 0 0 0 0 1015.2 1014.9 0.2
27/09:00pm 25.1 30.5 23.2 89 1.3 CALM 0 0 0 0 1015.1 1014.8 0.2

Other Formats:

Comma delimited format used in spreadsheet applications
http://www.bom.gov.au/fwo/IDW60801/IDW60801.94216.axf

JavaScript Object Notation format (JSON) in row-major order
http://www.bom.gov.au/fwo/IDW60801/IDW60801.94216.json